Latest Coastal Weather Observations for Cape Grim

IDT60701

Issued at 1:32 am EST Tuesday 1 September 2015 (issued every 10 minutes, with the page automatically refreshed every 10 minutes)

About coastal observations | Map of coastal stations | Coastal observations for TAS | Marine services | Other Formats
Station Details ID: 091331 Name: CAPE GRIM Lat: -40.68 Lon: 144.69 Height: 86.0 m
Data from the previous 72 hours. | See also: Recent months at Cape Grim
Date/Time
EST
Temp

°C
Wind Pressure Rain
since 9am
mm
Weather Cloud Vis
km
Sea
Height
m
Swell
Dir
 
Speed
knots
Gust
knots
hPa Trend Height
m
Period
s
Dir
01/01:30am 7.9 W 4 7 1017.5 - 0.0 - Partly cloudy - - - - -
01/01:00am 8.0 W 6 8 1017.6 - 0.0 - Partly cloudy - - - - -
01/12:30am 7.6 WSW 4 5 1017.7 - 0.0 - Partly cloudy - - - - -
01/12:00am 7.2 W 2 5 1017.9 - 0.0 - Partly cloudy - - - - -
 
Date/Time
EST
Temp

°C
Wind Pressure Rain
since 9am
mm
Weather Cloud Vis
km
Sea
Height
m
Swell
Dir
 
Speed
knots
Gust
knots
hPa Trend Height
m
Period
s
Dir
31/11:30pm 7.7 W 4 5 1018.2 - 0.0 - - - - - - -
31/11:00pm 7.5 W 3 4 1018.2 - 0.0 - - - - - - -
31/10:30pm 7.5 W 1 5 1018.4 - 0.0 - - - - - - -
31/10:00pm 7.5 CALM 0 4 1018.4 - 0.0 - - - - - - -
31/09:30pm 7.8 WSW 2 6 1018.6 - 0.0 - - - - - - -
31/09:00pm 7.4 W 5 8 1018.9 - 0.0 - - - - - - -
31/08:30pm 7.4 W 6 7 1018.8 - 0.0 - - - - - - -
31/08:00pm 8.0 W 5 8 1018.5 - 0.0 - Partly cloudy - - - - -
31/07:30pm 8.3 NNW 3 7 1018.5 - 0.0 - Cloudy - - - - -
31/07:00pm 8.7 WNW 5 7 1018.5 - 0.0 - Cloudy - - - - -
31/06:30pm 8.9 WSW 5 9 1018.5 - 0.0 - Cloudy - - - - -
31/06:00pm 8.9 WSW 5 7 1018.6 - 0.0 - Cloudy - - - - -
31/05:30pm 9.0 W 5 6 1018.6 - 0.0 - Partly cloudy - - - - -
31/05:00pm 9.8 WNW 6 8 1018.7 - 0.0 - Partly cloudy - - - - -
31/04:30pm 9.7 W 6 10 1018.7 - 0.0 - Cloudy - - - - -
31/04:00pm 9.7 W 7 10 1019.0 - 0.0 - Cloudy - - - - -
31/03:30pm 9.9 W 4 5 1018.9 - 0.0 - Cloudy - - - - -
31/03:00pm 10.1 NW 5 6 1019.0 - 0.0 - Cloudy - - - - -
31/02:30pm 10.0 NNW 6 7 1019.0 - 0.0 - Cloudy - - - - -
31/02:00pm 10.7 NNW 6 7 1019.2 - 0.0 - Partly cloudy - - - - -
31/01:30pm 11.2 NNW 4 7 1019.6 - 0.0 - Cloudy - - - - -
31/01:00pm 11.2 N 4 7 1019.9 - 0.0 - Partly cloudy - - - - -
31/12:30pm 11.1 NE 6 11 1020.1 - 0.0 - Partly cloudy - - - - -
31/12:00pm 10.1 NNE 5 7 1020.6 - 0.0 - Mostly cloudy - - - - -
31/11:30am 10.4 ENE 7 10 1020.8 - 0.0 - Partly cloudy - - - - -
31/11:00am 10.0 NE 7 11 1021.1 - 0.0 - Partly cloudy - - - - -
31/10:30am 9.8 NE 10 11 1021.2 - 0.0 - - - - - - -
31/10:00am 9.8 ENE 10 13 1021.2 - 0.0 - - - - - - -
31/09:30am 9.5 NE 9 12 1021.3 - 0.0 - - - - - - -
31/09:00am 9.0 ENE 8 10 1021.3 - 0.2 - - - - - - -
31/08:30am 8.3 ENE 9 10 1021.2 - 0.2 - Partly cloudy - - - - -
31/08:00am 6.6 ENE 9 11 1021.2 - 0.2 - Partly cloudy - - - - -
31/07:30am 6.9 ENE 8 9 1021.2 - 0.2 - Partly cloudy - - - - -
31/07:00am 5.6 ENE 9 10 1020.9 - 0.2 - Partly cloudy - - - - -
31/06:30am 5.0 ENE 9 10 1020.8 - 0.2 - - - - - - -
31/06:00am 4.7 ENE 9 10 1020.8 - 0.2 - - - - - - -
31/05:30am 4.7 ENE 9 10 1020.6 - 0.2 - - - - - - -
31/05:00am 4.9 ENE 10 11 1020.6 - 0.2 - - - - - - -
31/04:30am 5.0 ENE 10 11 1020.6 - 0.2 - - - - - - -
31/04:00am 5.1 E 11 12 1020.5 - 0.2 - - - - - - -
31/03:30am 5.4 E 11 13 1020.7 - 0.2 - - - - - - -
31/03:00am 5.2 E 10 12 1020.9 - 0.2 - - - - - - -
31/02:30am 5.5 E 11 12 1021.2 - 0.2 - - - - - - -
31/02:00am 5.3 E 8 9 1021.7 - 0.2 - - - - - - -
31/01:30am 4.8 E 7 8 1022.0 - 0.2 - - - - - - -
31/01:00am 4.8 E 8 9 1022.0 - 0.2 - - - - - - -
31/12:30am 5.0 ESE 7 8 1022.0 - 0.2 - - - - - - -
31/12:00am 5.8 SE 5 6 1022.3 - 0.2 - - - - - - -
 
Date/Time
EST
Temp

°C
Wind Pressure Rain
since 9am
mm
Weather Cloud Vis
km
Sea
Height
m
Swell
Dir
 
Speed
knots
Gust
knots
hPa Trend Height
m
Period
s
Dir
30/11:30pm 7.5 SW 3 4 1022.3 - 0.2 - - - - - - -
30/11:00pm 7.6 SSW 4 5 1022.6 - 0.2 - - - - - - -
30/10:30pm 6.9 SSW 3 5 1022.8 - 0.2 - - - - - - -
30/10:00pm 6.6 SSW 7 7 1022.7 - 0.2 - - - - - - -
30/09:30pm 7.1 S 7 9 1022.9 - 0.2 - - - - - - -
30/09:00pm 7.4 SSW 7 9 1022.9 - 0.2 - - - - - - -
30/08:30pm 7.9 SSW 7 9 1022.9 - 0.2 - - - - - - -
30/08:00pm 7.9 SSW 6 8 1022.7 - 0.2 - - - - - - -
30/07:30pm 7.9 SSW 6 8 1022.4 - 0.2 - - - - - - -
30/07:00pm 8.5 S 10 13 1022.3 - 0.2 - - - - - - -
30/06:30pm 8.8 S 9 13 1022.1 - 0.2 - - - - - - -
30/06:00pm 9.3 SSW 14 18 1022.1 - 0.2 - - - - - - -
30/05:30pm 9.6 SSW 15 19 1022.0 - 0.2 - - - - - - -
30/05:00pm 10.0 SSW 15 18 1022.1 - 0.2 - - - - - - -
30/04:30pm 10.1 SSW 13 19 1022.2 - 0.2 - - - - - - -
30/04:00pm 10.1 SW 13 19 1022.3 - 0.2 - - - - - - -
30/03:30pm 10.2 WNW 6 7 1022.6 - 0.2 - Partly cloudy - - - - -
30/03:00pm 10.1 W 5 7 1022.7 - 0.2 - - - - - - -
30/02:30pm 9.9 WNW 5 7 1023.0 - 0.2 - - - - - - -
30/02:00pm 10.4 NW 6 7 1022.9 - 0.2 - Partly cloudy - - - - -
30/01:30pm 10.3 N 6 12 1023.0 - 0.0 - - - - - - -
30/01:00pm 10.2 ENE 6 9 1023.3 - 0.0 - - - - - - -
30/12:30pm 9.8 E 9 11 1023.7 - 0.0 - - - - - - -
30/12:00pm 9.6 E 9 13 1024.0 - 0.0 - - - - - - -
30/11:30am 9.2 E 9 13 1024.3 - 0.0 - - - - - - -
30/11:00am 9.1 ESE 7 13 1024.5 - 0.0 - - - - - - -
30/10:30am 8.6 SE 10 13 1024.5 - 0.0 - - - - - - -
30/10:00am 8.5 S 12 17 1024.8 - 0.0 - - - - - - -
30/09:30am 7.8 S 18 24 1024.7 - 0.0 - - - - - - -
30/09:00am 7.3 S 19 27 1024.8 - 0.0 - - - - - - -
30/08:33am 7.1 S 17 27 1024.9 - 0.0 - - - - - - -
30/08:30am 7.2 S 17 23 1024.9 - 0.0 - - - - - - -
30/08:11am 7.1 S 17 27 1024.9 - 0.0 - - - - - - -
30/08:00am 7.0 S 18 25 1024.7 - 0.0 - - - - - - -
30/07:35am 6.9 S 21 32 1024.2 - 0.0 - - - - - - -
30/07:30am 6.9 S 20 27 1024.3 - 0.0 - - - - - - -
30/07:10am 6.8 S 19 29 1024.3 - 0.0 - - - - - - -
30/07:00am 6.8 S 21 29 1024.2 - 0.0 - - - - - - -
30/06:51am 6.8 S 19 29 1024.1 - 0.0 - - - - - - -
30/06:30am 6.6 S 19 26 1024.2 - 0.0 - - - - - - -
30/06:00am 6.7 S 20 28 1023.8 - 0.0 - - - - - - -
30/05:30am 6.5 S 21 32 1023.8 - 0.0 - - - - - - -
30/05:24am 6.6 S 21 32 1023.8 - 0.0 - - - - - - -
30/05:00am 6.4 S 21 29 1023.5 - 0.0 - - - - - - -
30/04:30am 6.2 S 19 27 1023.5 - 0.0 - - - - - - -
30/04:00am 6.3 S 21 30 1023.4 - 0.0 - - - - - - -
30/03:58am 6.2 S 19 30 1023.4 - 0.0 - - - - - - -
30/03:30am 6.1 S 18 26 1023.7 - 0.0 - - - - - - -
30/03:00am 6.3 S 19 25 1023.6 - 0.0 - - - - - - -
30/02:30am 6.1 S 18 30 1023.7 - 0.0 - - - - - - -
30/02:27am 6.2 S 18 30 1023.7 - 0.0 - - - - - - -
30/02:00am 6.3 S 16 24 1024.2 - 0.0 - - - - - - -
30/01:44am 6.4 S 19 29 1024.4 - 0.0 - - - - - - -
30/01:30am 6.5 S 20 28 1024.4 - 0.0 - - - - - - -
30/01:00am 6.7 S 21 27 1024.6 - 0.0 - - - - - - -
30/12:30am 6.8 S 18 26 1024.6 - 0.0 - - - - - - -
30/12:05am 7.2 S 21 31 1024.5 - 0.0 - - - - - - -
30/12:00am 7.1 S 21 27 1024.6 - 0.0 - - - - - - -
 
Date/Time
EST
Temp

°C
Wind Pressure Rain
since 9am
mm
Weather Cloud Vis
km
Sea
Height
m
Swell
Dir
 
Speed
knots
Gust
knots
hPa Trend Height
m
Period
s
Dir
29/11:30pm 7.2 S 21 27 1024.7 - 0.0 - - - - - - -
29/11:06pm 7.2 S 18 28 1025.2 - 0.0 - - - - - - -
29/11:00pm 7.5 S 19 28 1025.2 - 0.0 - - - - - - -
29/10:59pm 7.4 S 18 28 1025.3 - 0.0 - - - - - - -
29/10:30pm 7.9 S 19 25 1025.4 - 0.0 - - - - - - -
29/10:08pm 8.0 S 19 29 1025.5 - 0.0 - - - - - - -
29/10:00pm 8.0 S 20 27 1025.5 - 0.0 - - - - - - -
29/09:35pm 8.3 SSW 20 30 1025.2 - 0.0 - Partly cloudy - - - - -
29/09:30pm 8.2 S 19 27 1025.2 - 0.0 - Partly cloudy - - - - -
29/09:00pm 8.5 S 18 26 1025.4 - 0.0 - Mostly cloudy - - - - -
29/08:30pm 8.8 S 23 33 1024.7 - 0.0 - Partly cloudy - - - - -
29/08:02pm 8.8 S 27 37 1024.2 - 0.0 - Partly cloudy - - - - -
29/08:00pm 8.9 SSW 27 36 1024.2 - 0.0 - Partly cloudy - - - - -
29/07:30pm 8.9 SSW 27 38 1024.0 - 0.0 - Partly cloudy - - - - -
29/07:01pm 8.9 SSW 26 36 1024.1 - 0.0 - - - - - - -
29/07:00pm 8.9 SSW 27 36 1024.1 - 0.0 - - - - - - -
29/06:30pm 9.0 SSW 28 38 1023.9 - 0.0 - Partly cloudy - - - - -
29/06:00pm 9.1 SSW 27 37 1023.7 - 0.0 - Partly cloudy - - - - -
29/05:30pm 9.2 SSW 25 36 1023.6 - 0.0 - Partly cloudy - - - - -
29/05:05pm 9.6 SSW 27 37 1023.3 - 0.0 - Partly cloudy - - - - -
29/05:00pm 9.6 SSW 29 37 1023.3 - 0.0 - Partly cloudy - - - - -
29/04:30pm 9.6 SSW 29 41 1023.3 - 0.0 - Partly cloudy - - - - -
29/04:10pm 9.8 SSW 27 37 1023.2 - 0.0 - Partly cloudy - - - - -
29/04:00pm 10.2 SSW 28 37 1023.0 - 0.0 - Partly cloudy - - - - -
29/03:30pm 10.1 SSW 29 36 1022.9 - 0.0 - Partly cloudy - - - - -
29/03:00pm 10.1 SSW 29 39 1023.1 - 0.0 - Mostly cloudy - - - - -
29/02:30pm 10.4 SSW 29 37 1022.7 - 0.0 - Partly cloudy - - - - -
29/02:00pm 10.7 SSW 27 37 1023.0 - 0.0 - Partly cloudy - - - - -
29/01:59pm 10.8 SSW 27 37 1023.0 - 0.0 - Partly cloudy - - - - -
29/01:30pm 10.6 SSW 27 36 1023.1 - 0.0 - Partly cloudy - - - - -
29/01:00pm 10.5 SSW 26 36 1023.5 - 0.0 - Partly cloudy - - - - -
29/12:30pm 10.2 SSW 26 37 1023.9 - 0.0 - Partly cloudy - - - - -
29/12:02pm 10.1 SSW 23 33 1024.0 - 0.0 - Partly cloudy - - - - -
29/12:00pm 10.4 SSW 22 30 1024.2 - 0.0 - Cloudy - - - - -
29/11:33am 10.4 SSW 26 36 1024.2 - 0.0 - Partly cloudy - - - - -
29/11:30am 10.0 SSW 27 36 1024.1 - 0.0 - Partly cloudy - - - - -
29/11:07am 10.4 SSW 27 37 1024.2 - 0.0 - Partly cloudy - - - - -
29/11:00am 9.8 SSW 28 36 1024.1 - 0.0 - Partly cloudy - - - - -
29/10:39am 9.7 SSW 25 35 1024.1 - 0.0 - Partly cloudy - - - - -
29/10:30am 9.9 SSW 27 35 1024.1 - 0.0 - Partly cloudy - - - - -
29/10:07am 9.6 SSW 27 37 1023.9 - 0.0 - Partly cloudy - - - - -
29/10:00am 9.7 SSW 27 36 1024.0 - 0.0 - Partly cloudy - - - - -
29/09:34am 9.1 SSW 24 34 1024.2 - 0.0 - Partly cloudy - - - - -
29/09:32am 9.3 SSW 25 34 1024.2 - 0.0 - Partly cloudy - - - - -
29/09:30am 9.2 SSW 26 35 1024.3 - 0.0 - Partly cloudy - - - - -
29/09:10am 9.1 SSW 25 36 1024.1 - 0.0 - Partly cloudy - - - - -
29/09:09am 9.2 SSW 26 36 1024.1 - 0.0 - Partly cloudy - - - - -
29/09:00am 8.9 SSW 28 40 1024.1 - 0.4 - Cloudy - - - - -
29/08:58am 8.8 SSW 27 39 1024.0 - 0.4 - Partly cloudy - - - - -
29/08:51am 8.9 SSW 26 38 1024.1 - 0.4 - Partly cloudy - - - - -
29/08:30am 8.7 SSW 28 39 1024.0 - 0.4 - Partly cloudy - - - - -
29/08:17am 8.8 SSW 28 39 1024.0 - 0.4 - Partly cloudy - - - - -
29/08:00am 8.8 SSW 29 39 1024.0 - 0.4 - Partly cloudy - - - - -
29/07:59am 8.8 SSW 29 39 1024.0 - 0.4 - Partly cloudy - - - - -
29/07:47am 8.6 SSW 28 43 1023.6 - 0.4 - Partly cloudy - - - - -
29/07:30am 8.5 SSW 30 42 1023.4 - 0.4 - Partly cloudy - - - - -
29/07:00am 8.3 SSW 33 48 1022.8 - 0.4 - Partly cloudy - - - - -
29/06:30am 8.7 SSW 35 47 1022.4 - 0.4 - Partly cloudy - - - - -
29/06:00am 8.3 SW 31 42 1022.5 - 0.4 - Cloudy - - - - -
29/05:30am 7.9 SSW 32 44 1022.3 - 0.4 - Partly cloudy - - - - -
29/05:00am 8.0 SSW 31 43 1022.5 - 0.4 - Partly cloudy - - - - -
29/04:30am 8.0 SW 29 41 1022.8 - 0.4 - Partly cloudy - - - - -
29/04:00am 7.9 SW 31 46 1022.8 - 0.4 - Partly cloudy - - - - -
29/03:30am 8.2 SW 30 43 1023.5 - 0.4 - Partly cloudy - - - - -
29/03:00am 7.9 SW 31 43 1023.6 - 0.4 Recent precip. Mostly cloudy - - - - -
29/02:35am 7.8 SW 31 41 1024.0 - 0.4 - Partly cloudy - - - - -
29/02:30am 7.8 SW 30 37 1024.3 - 0.4 - Partly cloudy - - - - -
29/02:00am 7.8 SW 26 36 1025.0 - 0.2 - Partly cloudy - - - - -

Other Formats:

Comma delimited format used in spreadsheet applications
http://www.bom.gov.au/fwo/IDT60701/IDT60701.95954.axf

JavaScript Object Notation format (JSON) in row-major order
http://www.bom.gov.au/fwo/IDT60701/IDT60701.95954.json